sensor_id;sensor_type;location;lat;lon;timestamp;P1;durP1;ratioP1;P2;durP2;ratioP2
85753;SDS011;76193;51.076;-1.794;2024-03-17T00:01:09;17.27;;;6.68;;
85753;SDS011;76193;51.076;-1.794;2024-03-17T00:03:35;19.70;;;5.88;;
85753;SDS011;76193;51.076;-1.794;2024-03-17T00:06:00;14.45;;;5.47;;
85753;SDS011;76193;51.076;-1.794;2024-03-17T00:08:26;17.15;;;5.43;;
85753;SDS011;76193;51.076;-1.794;2024-03-17T00:10:52;16.92;;;5.22;;
85753;SDS011;76193;51.076;-1.794;2024-03-17T00:13:21;18.00;;;5.95;;
85753;SDS011;76193;51.076;-1.794;2024-03-17T00:15:47;18.15;;;4.82;;
85753;SDS011;76193;51.076;-1.794;2024-03-17T00:18:13;11.75;;;4.88;;
85753;SDS011;76193;51.076;-1.794;2024-03-17T00:20:39;14.98;;;4.82;;
85753;SDS011;76193;51.076;-1.794;2024-03-17T00:23:04;13.25;;;4.63;;
85753;SDS011;76193;51.076;-1.794;2024-03-17T00:25:34;14.05;;;5.32;;
85753;SDS011;76193;51.076;-1.794;2024-03-17T00:28:00;14.38;;;5.25;;
85753;SDS011;76193;51.076;-1.794;2024-03-17T00:30:26;16.75;;;5.13;;
85753;SDS011;76193;51.076;-1.794;2024-03-17T00:32:51;19.38;;;5.95;;
85753;SDS011;76193;51.076;-1.794;2024-03-17T00:35:16;14.32;;;5.57;;
85753;SDS011;76193;51.076;-1.794;2024-03-17T00:37:48;14.43;;;6.03;;
85753;SDS011;76193;51.076;-1.794;2024-03-17T00:40:14;20.55;;;6.07;;
85753;SDS011;76193;51.076;-1.794;2024-03-17T00:42:40;19.35;;;6.97;;
85753;SDS011;76193;51.076;-1.794;2024-03-17T00:45:08;17.48;;;6.13;;
85753;SDS011;76193;51.076;-1.794;2024-03-17T00:47:35;14.95;;;6.38;;
85753;SDS011;76193;51.076;-1.794;2024-03-17T00:50:00;27.95;;;7.78;;
85753;SDS011;76193;51.076;-1.794;2024-03-17T00:52:26;16.58;;;6.22;;
85753;SDS011;76193;51.076;-1.794;2024-03-17T00:54:52;18.02;;;6.63;;
85753;SDS011;76193;51.076;-1.794;2024-03-17T00:57:17;19.50;;;6.90;;
85753;SDS011;76193;51.076;-1.794;2024-03-17T00:59:43;19.58;;;6.97;;
85753;SDS011;76193;51.076;-1.794;2024-03-17T01:02:09;14.25;;;5.28;;
85753;SDS011;76193;51.076;-1.794;2024-03-17T01:04:37;17.60;;;5.75;;
85753;SDS011;76193;51.076;-1.794;2024-03-17T01:07:02;20.63;;;6.05;;
85753;SDS011;76193;51.076;-1.794;2024-03-17T01:09:28;15.65;;;5.53;;
85753;SDS011;76193;51.076;-1.794;2024-03-17T01:11:53;18.60;;;5.75;;
85753;SDS011;76193;51.076;-1.794;2024-03-17T01:14:18;14.15;;;4.95;;
85753;SDS011;76193;51.076;-1.794;2024-03-17T01:16:44;16.50;;;5.90;;
85753;SDS011;76193;51.076;-1.794;2024-03-17T01:19:09;16.07;;;4.90;;
85753;SDS011;76193;51.076;-1.794;2024-03-17T01:21:35;17.42;;;5.40;;
85753;SDS011;76193;51.076;-1.794;2024-03-17T01:24:00;18.42;;;5.75;;
85753;SDS011;76193;51.076;-1.794;2024-03-17T01:26:25;14.07;;;5.70;;
85753;SDS011;76193;51.076;-1.794;2024-03-17T01:28:51;13.30;;;4.72;;
85753;SDS011;76193;51.076;-1.794;2024-03-17T01:31:17;12.50;;;4.82;;
85753;SDS011;76193;51.076;-1.794;2024-03-17T01:33:42;18.27;;;5.15;;
85753;SDS011;76193;51.076;-1.794;2024-03-17T01:36:07;13.75;;;4.68;;
85753;SDS011;76193;51.076;-1.794;2024-03-17T01:38:33;13.48;;;4.82;;
85753;SDS011;76193;51.076;-1.794;2024-03-17T01:40:58;17.48;;;5.60;;
85753;SDS011;76193;51.076;-1.794;2024-03-17T01:43:24;17.63;;;5.15;;
85753;SDS011;76193;51.076;-1.794;2024-03-17T01:45:49;16.55;;;4.90;;
85753;SDS011;76193;51.076;-1.794;2024-03-17T01:48:15;14.70;;;5.10;;
85753;SDS011;76193;51.076;-1.794;2024-03-17T01:50:44;15.70;;;4.15;;
85753;SDS011;76193;51.076;-1.794;2024-03-17T01:53:10;19.52;;;5.07;;
85753;SDS011;76193;51.076;-1.794;2024-03-17T01:55:37;13.80;;;4.57;;
85753;SDS011;76193;51.076;-1.794;2024-03-17T01:58:04;14.07;;;3.95;;
85753;SDS011;76193;51.076;-1.794;2024-03-17T02:00:32;18.92;;;4.95;;
85753;SDS011;76193;51.076;-1.794;2024-03-17T02:03:07;14.35;;;3.97;;
85753;SDS011;76193;51.076;-1.794;2024-03-17T02:05:33;16.35;;;4.03;;
85753;SDS011;76193;51.076;-1.794;2024-03-17T02:08:00;20.77;;;4.47;;
85753;SDS011;76193;51.076;-1.794;2024-03-17T02:10:25;16.10;;;4.30;;
85753;SDS011;76193;51.076;-1.794;2024-03-17T02:12:51;19.80;;;3.88;;
85753;SDS011;76193;51.076;-1.794;2024-03-17T02:15:17;16.08;;;4.32;;
85753;SDS011;76193;51.076;-1.794;2024-03-17T02:17:42;9.85;;;4.13;;
85753;SDS011;76193;51.076;-1.794;2024-03-17T02:20:08;15.73;;;4.07;;
85753;SDS011;76193;51.076;-1.794;2024-03-17T02:22:36;19.35;;;4.00;;
85753;SDS011;76193;51.076;-1.794;2024-03-17T02:25:02;13.80;;;3.65;;
85753;SDS011;76193;51.076;-1.794;2024-03-17T02:27:27;9.07;;;3.85;;
85753;SDS011;76193;51.076;-1.794;2024-03-17T02:29:53;10.63;;;3.58;;
85753;SDS011;76193;51.076;-1.794;2024-03-17T02:32:18;14.57;;;3.73;;
85753;SDS011;76193;51.076;-1.794;2024-03-17T02:34:47;10.40;;;4.03;;
85753;SDS011;76193;51.076;-1.794;2024-03-17T02:37:12;12.10;;;3.85;;
85753;SDS011;76193;51.076;-1.794;2024-03-17T02:39:37;14.87;;;4.03;;
85753;SDS011;76193;51.076;-1.794;2024-03-17T02:42:04;13.68;;;4.65;;
85753;SDS011;76193;51.076;-1.794;2024-03-17T02:44:31;18.75;;;4.13;;
85753;SDS011;76193;51.076;-1.794;2024-03-17T02:46:57;14.23;;;4.10;;
85753;SDS011;76193;51.076;-1.794;2024-03-17T02:49:24;13.15;;;3.60;;
85753;SDS011;76193;51.076;-1.794;2024-03-17T02:51:49;11.98;;;4.65;;
85753;SDS011;76193;51.076;-1.794;2024-03-17T02:54:15;18.30;;;4.45;;
85753;SDS011;76193;51.076;-1.794;2024-03-17T02:56:40;10.57;;;4.15;;
85753;SDS011;76193;51.076;-1.794;2024-03-17T02:59:07;13.63;;;4.22;;
85753;SDS011;76193;51.076;-1.794;2024-03-17T03:01:32;12.45;;;4.18;;
85753;SDS011;76193;51.076;-1.794;2024-03-17T03:03:57;17.73;;;4.05;;
85753;SDS011;76193;51.076;-1.794;2024-03-17T03:06:23;11.57;;;4.35;;
85753;SDS011;76193;51.076;-1.794;2024-03-17T03:08:50;13.32;;;4.03;;
85753;SDS011;76193;51.076;-1.794;2024-03-17T03:11:15;11.43;;;3.88;;
85753;SDS011;76193;51.076;-1.794;2024-03-17T03:13:42;16.27;;;4.03;;
85753;SDS011;76193;51.076;-1.794;2024-03-17T03:16:08;17.92;;;4.55;;
85753;SDS011;76193;51.076;-1.794;2024-03-17T03:18:35;14.50;;;4.85;;
85753;SDS011;76193;51.076;-1.794;2024-03-17T03:21:01;15.43;;;3.80;;
85753;SDS011;76193;51.076;-1.794;2024-03-17T03:23:26;11.77;;;3.53;;
85753;SDS011;76193;51.076;-1.794;2024-03-17T03:25:55;17.48;;;4.97;;
85753;SDS011;76193;51.076;-1.794;2024-03-17T03:28:23;14.10;;;4.15;;
85753;SDS011;76193;51.076;-1.794;2024-03-17T03:30:49;15.98;;;4.25;;
85753;SDS011;76193;51.076;-1.794;2024-03-17T03:33:14;14.65;;;4.65;;
85753;SDS011;76193;51.076;-1.794;2024-03-17T03:35:40;12.93;;;4.18;;
85753;SDS011;76193;51.076;-1.794;2024-03-17T03:38:05;10.30;;;4.38;;
85753;SDS011;76193;51.076;-1.794;2024-03-17T03:40:31;14.00;;;4.68;;
85753;SDS011;76193;51.076;-1.794;2024-03-17T03:42:57;17.33;;;4.30;;
85753;SDS011;76193;51.076;-1.794;2024-03-17T03:45:23;14.93;;;4.40;;
85753;SDS011;76193;51.076;-1.794;2024-03-17T03:47:49;18.10;;;4.30;;
85753;SDS011;76193;51.076;-1.794;2024-03-17T03:50:15;14.90;;;3.55;;
85753;SDS011;76193;51.076;-1.794;2024-03-17T03:52:44;12.45;;;3.75;;
85753;SDS011;76193;51.076;-1.794;2024-03-17T03:55:10;16.70;;;4.45;;
85753;SDS011;76193;51.076;-1.794;2024-03-17T03:57:36;17.08;;;4.43;;
85753;SDS011;76193;51.076;-1.794;2024-03-17T04:00:05;12.57;;;4.00;;
85753;SDS011;76193;51.076;-1.794;2024-03-17T04:02:37;13.60;;;4.20;;
85753;SDS011;76193;51.076;-1.794;2024-03-17T04:05:06;10.48;;;3.58;;
85753;SDS011;76193;51.076;-1.794;2024-03-17T04:07:32;18.58;;;4.25;;
85753;SDS011;76193;51.076;-1.794;2024-03-17T04:09:57;19.75;;;4.53;;
85753;SDS011;76193;51.076;-1.794;2024-03-17T04:12:26;11.10;;;3.45;;
85753;SDS011;76193;51.076;-1.794;2024-03-17T04:14:52;13.73;;;4.30;;
85753;SDS011;76193;51.076;-1.794;2024-03-17T04:17:21;14.93;;;4.60;;
85753;SDS011;76193;51.076;-1.794;2024-03-17T04:19:48;20.60;;;4.90;;
85753;SDS011;76193;51.076;-1.794;2024-03-17T04:22:14;18.05;;;5.25;;
85753;SDS011;76193;51.076;-1.794;2024-03-17T04:24:40;18.58;;;4.85;;
85753;SDS011;76193;51.076;-1.794;2024-03-17T04:27:05;12.68;;;4.70;;
85753;SDS011;76193;51.076;-1.794;2024-03-17T04:29:31;21.08;;;5.35;;
85753;SDS011;76193;51.076;-1.794;2024-03-17T04:31:56;11.57;;;4.63;;
85753;SDS011;76193;51.076;-1.794;2024-03-17T04:34:21;16.15;;;5.32;;
85753;SDS011;76193;51.076;-1.794;2024-03-17T04:36:46;11.20;;;4.72;;
85753;SDS011;76193;51.076;-1.794;2024-03-17T04:39:12;13.25;;;4.25;;
85753;SDS011;76193;51.076;-1.794;2024-03-17T04:41:37;15.95;;;5.10;;
85753;SDS011;76193;51.076;-1.794;2024-03-17T04:44:05;17.27;;;5.13;;
85753;SDS011;76193;51.076;-1.794;2024-03-17T04:46:31;15.32;;;4.90;;
85753;SDS011;76193;51.076;-1.794;2024-03-17T04:48:57;17.40;;;5.18;;
85753;SDS011;76193;51.076;-1.794;2024-03-17T04:51:22;16.80;;;4.57;;
85753;SDS011;76193;51.076;-1.794;2024-03-17T04:53:48;13.27;;;5.38;;
85753;SDS011;76193;51.076;-1.794;2024-03-17T04:56:13;13.90;;;4.57;;
85753;SDS011;76193;51.076;-1.794;2024-03-17T04:58:38;14.13;;;5.20;;
85753;SDS011;76193;51.076;-1.794;2024-03-17T05:01:07;6.85;;;4.13;;
85753;SDS011;76193;51.076;-1.794;2024-03-17T05:03:33;13.55;;;4.82;;
85753;SDS011;76193;51.076;-1.794;2024-03-17T05:05:59;11.75;;;4.50;;
85753;SDS011;76193;51.076;-1.794;2024-03-17T05:08:28;11.38;;;4.47;;
85753;SDS011;76193;51.076;-1.794;2024-03-17T05:10:57;9.88;;;4.53;;
85753;SDS011;76193;51.076;-1.794;2024-03-17T05:13:29;15.55;;;4.88;;
85753;SDS011;76193;51.076;-1.794;2024-03-17T05:15:55;12.88;;;4.60;;
85753;SDS011;76193;51.076;-1.794;2024-03-17T05:18:21;9.60;;;4.00;;
85753;SDS011;76193;51.076;-1.794;2024-03-17T05:20:47;9.90;;;4.28;;
85753;SDS011;76193;51.076;-1.794;2024-03-17T05:23:21;13.95;;;4.65;;
85753;SDS011;76193;51.076;-1.794;2024-03-17T05:25:52;9.70;;;3.70;;
85753;SDS011;76193;51.076;-1.794;2024-03-17T05:28:18;6.75;;;3.60;;
85753;SDS011;76193;51.076;-1.794;2024-03-17T05:30:43;11.85;;;3.97;;
85753;SDS011;76193;51.076;-1.794;2024-03-17T05:33:09;7.78;;;2.92;;
85753;SDS011;76193;51.076;-1.794;2024-03-17T05:35:35;12.45;;;4.22;;
85753;SDS011;76193;51.076;-1.794;2024-03-17T05:38:00;9.32;;;3.75;;
85753;SDS011;76193;51.076;-1.794;2024-03-17T05:40:25;11.18;;;3.78;;
85753;SDS011;76193;51.076;-1.794;2024-03-17T05:42:51;7.80;;;3.00;;
85753;SDS011;76193;51.076;-1.794;2024-03-17T05:45:16;6.03;;;3.03;;
85753;SDS011;76193;51.076;-1.794;2024-03-17T05:47:42;6.63;;;2.65;;
85753;SDS011;76193;51.076;-1.794;2024-03-17T05:50:07;4.63;;;2.67;;
85753;SDS011;76193;51.076;-1.794;2024-03-17T05:52:34;7.18;;;3.22;;
85753;SDS011;76193;51.076;-1.794;2024-03-17T05:54:59;5.43;;;2.47;;
85753;SDS011;76193;51.076;-1.794;2024-03-17T05:57:25;7.50;;;2.85;;
85753;SDS011;76193;51.076;-1.794;2024-03-17T05:59:51;5.53;;;2.63;;
85753;SDS011;76193;51.076;-1.794;2024-03-17T06:02:16;9.02;;;3.53;;
85753;SDS011;76193;51.076;-1.794;2024-03-17T06:04:43;9.18;;;2.78;;
85753;SDS011;76193;51.076;-1.794;2024-03-17T06:07:09;8.90;;;3.78;;
85753;SDS011;76193;51.076;-1.794;2024-03-17T06:09:34;4.43;;;2.20;;
85753;SDS011;76193;51.076;-1.794;2024-03-17T06:11:59;4.80;;;2.38;;
85753;SDS011;76193;51.076;-1.794;2024-03-17T06:14:25;6.43;;;2.70;;
85753;SDS011;76193;51.076;-1.794;2024-03-17T06:16:50;4.03;;;2.50;;
85753;SDS011;76193;51.076;-1.794;2024-03-17T06:19:16;4.70;;;2.72;;
85753;SDS011;76193;51.076;-1.794;2024-03-17T06:21:42;8.07;;;3.42;;
85753;SDS011;76193;51.076;-1.794;2024-03-17T06:24:07;7.18;;;2.75;;
85753;SDS011;76193;51.076;-1.794;2024-03-17T06:26:33;6.45;;;2.78;;
85753;SDS011;76193;51.076;-1.794;2024-03-17T06:29:00;6.00;;;2.15;;
85753;SDS011;76193;51.076;-1.794;2024-03-17T06:31:25;7.03;;;2.63;;
85753;SDS011;76193;51.076;-1.794;2024-03-17T06:33:51;5.45;;;2.03;;
85753;SDS011;76193;51.076;-1.794;2024-03-17T06:36:16;7.68;;;2.42;;
85753;SDS011;76193;51.076;-1.794;2024-03-17T06:38:42;7.35;;;2.22;;
85753;SDS011;76193;51.076;-1.794;2024-03-17T06:41:09;3.22;;;2.10;;
85753;SDS011;76193;51.076;-1.794;2024-03-17T06:43:34;6.80;;;2.05;;
85753;SDS011;76193;51.076;-1.794;2024-03-17T06:46:00;3.55;;;1.83;;
85753;SDS011;76193;51.076;-1.794;2024-03-17T06:48:26;3.63;;;1.80;;
85753;SDS011;76193;51.076;-1.794;2024-03-17T06:50:52;3.40;;;1.38;;
85753;SDS011;76193;51.076;-1.794;2024-03-17T06:53:19;4.50;;;1.92;;
85753;SDS011;76193;51.076;-1.794;2024-03-17T06:55:52;4.30;;;1.58;;
85753;SDS011;76193;51.076;-1.794;2024-03-17T06:58:18;6.90;;;1.70;;
85753;SDS011;76193;51.076;-1.794;2024-03-17T07:00:54;3.92;;;1.60;;
85753;SDS011;76193;51.076;-1.794;2024-03-17T07:03:20;2.70;;;1.63;;
85753;SDS011;76193;51.076;-1.794;2024-03-17T07:05:51;2.95;;;1.50;;
85753;SDS011;76193;51.076;-1.794;2024-03-17T07:08:19;3.97;;;2.05;;
85753;SDS011;76193;51.076;-1.794;2024-03-17T07:10:58;2.70;;;1.33;;
85753;SDS011;76193;51.076;-1.794;2024-03-17T07:13:33;3.67;;;1.50;;
85753;SDS011;76193;51.076;-1.794;2024-03-17T07:16:00;2.65;;;1.33;;
85753;SDS011;76193;51.076;-1.794;2024-03-17T07:18:27;3.72;;;1.63;;
85753;SDS011;76193;51.076;-1.794;2024-03-17T07:20:52;4.53;;;1.70;;
85753;SDS011;76193;51.076;-1.794;2024-03-17T07:23:18;3.08;;;1.70;;
85753;SDS011;76193;51.076;-1.794;2024-03-17T07:26:00;2.53;;;1.80;;
85753;SDS011;76193;51.076;-1.794;2024-03-17T07:28:26;1.98;;;1.33;;
85753;SDS011;76193;51.076;-1.794;2024-03-17T07:30:53;2.65;;;1.60;;
85753;SDS011;76193;51.076;-1.794;2024-03-17T07:33:21;8.52;;;1.75;;
85753;SDS011;76193;51.076;-1.794;2024-03-17T07:35:47;3.15;;;1.52;;
85753;SDS011;76193;51.076;-1.794;2024-03-17T07:38:13;3.40;;;1.80;;
85753;SDS011;76193;51.076;-1.794;2024-03-17T07:40:39;2.60;;;1.55;;
85753;SDS011;76193;51.076;-1.794;2024-03-17T07:43:04;2.83;;;1.73;;
85753;SDS011;76193;51.076;-1.794;2024-03-17T07:45:30;2.97;;;1.70;;
85753;SDS011;76193;51.076;-1.794;2024-03-17T07:47:55;2.73;;;1.77;;
85753;SDS011;76193;51.076;-1.794;2024-03-17T07:50:20;4.07;;;1.70;;
85753;SDS011;76193;51.076;-1.794;2024-03-17T07:52:46;2.87;;;1.60;;
85753;SDS011;76193;51.076;-1.794;2024-03-17T07:55:11;5.85;;;2.00;;
85753;SDS011;76193;51.076;-1.794;2024-03-17T07:57:36;4.82;;;1.70;;
85753;SDS011;76193;51.076;-1.794;2024-03-17T08:00:02;4.03;;;1.77;;
85753;SDS011;76193;51.076;-1.794;2024-03-17T08:02:28;6.80;;;2.15;;
85753;SDS011;76193;51.076;-1.794;2024-03-17T08:04:54;6.20;;;1.98;;
85753;SDS011;76193;51.076;-1.794;2024-03-17T08:07:19;5.53;;;2.30;;
85753;SDS011;76193;51.076;-1.794;2024-03-17T08:09:44;3.53;;;2.20;;
85753;SDS011;76193;51.076;-1.794;2024-03-17T08:12:10;7.10;;;2.28;;
85753;SDS011;76193;51.076;-1.794;2024-03-17T08:14:35;6.53;;;2.47;;
85753;SDS011;76193;51.076;-1.794;2024-03-17T08:17:01;10.15;;;3.35;;
85753;SDS011;76193;51.076;-1.794;2024-03-17T08:19:26;4.07;;;2.38;;
85753;SDS011;76193;51.076;-1.794;2024-03-17T08:21:51;7.85;;;2.40;;
85753;SDS011;76193;51.076;-1.794;2024-03-17T08:24:17;7.25;;;2.45;;
85753;SDS011;76193;51.076;-1.794;2024-03-17T08:26:42;8.63;;;2.80;;
85753;SDS011;76193;51.076;-1.794;2024-03-17T08:29:10;4.85;;;1.95;;
85753;SDS011;76193;51.076;-1.794;2024-03-17T08:31:36;6.97;;;2.88;;
85753;SDS011;76193;51.076;-1.794;2024-03-17T08:34:02;4.57;;;2.40;;
85753;SDS011;76193;51.076;-1.794;2024-03-17T08:36:27;3.78;;;2.13;;
85753;SDS011;76193;51.076;-1.794;2024-03-17T08:38:53;6.03;;;2.15;;
85753;SDS011;76193;51.076;-1.794;2024-03-17T08:41:20;8.50;;;2.40;;
85753;SDS011;76193;51.076;-1.794;2024-03-17T08:43:45;4.78;;;2.20;;
85753;SDS011;76193;51.076;-1.794;2024-03-17T08:46:11;4.13;;;1.88;;
85753;SDS011;76193;51.076;-1.794;2024-03-17T08:48:38;5.28;;;2.08;;
85753;SDS011;76193;51.076;-1.794;2024-03-17T08:51:05;5.22;;;1.65;;
85753;SDS011;76193;51.076;-1.794;2024-03-17T08:53:31;3.05;;;1.67;;
85753;SDS011;76193;51.076;-1.794;2024-03-17T08:55:57;3.13;;;1.75;;
85753;SDS011;76193;51.076;-1.794;2024-03-17T08:58:24;5.10;;;2.28;;
85753;SDS011;76193;51.076;-1.794;2024-03-17T09:00:50;4.65;;;2.30;;
85753;SDS011;76193;51.076;-1.794;2024-03-17T09:03:16;4.00;;;2.80;;
85753;SDS011;76193;51.076;-1.794;2024-03-17T09:05:42;5.45;;;2.40;;
85753;SDS011;76193;51.076;-1.794;2024-03-17T09:08:14;7.18;;;2.83;;
85753;SDS011;76193;51.076;-1.794;2024-03-17T09:10:41;3.85;;;2.55;;
85753;SDS011;76193;51.076;-1.794;2024-03-17T09:13:07;4.43;;;2.67;;
85753;SDS011;76193;51.076;-1.794;2024-03-17T09:15:33;5.57;;;2.83;;
85753;SDS011;76193;51.076;-1.794;2024-03-17T09:17:58;6.07;;;2.70;;
85753;SDS011;76193;51.076;-1.794;2024-03-17T09:20:24;7.45;;;3.08;;
85753;SDS011;76193;51.076;-1.794;2024-03-17T09:22:49;8.43;;;3.10;;
85753;SDS011;76193;51.076;-1.794;2024-03-17T09:25:14;6.85;;;3.10;;
85753;SDS011;76193;51.076;-1.794;2024-03-17T09:27:40;7.95;;;3.45;;
85753;SDS011;76193;51.076;-1.794;2024-03-17T09:30:06;5.97;;;3.22;;
85753;SDS011;76193;51.076;-1.794;2024-03-17T09:32:37;8.23;;;4.03;;
85753;SDS011;76193;51.076;-1.794;2024-03-17T09:35:03;7.25;;;3.40;;
85753;SDS011;76193;51.076;-1.794;2024-03-17T09:37:31;7.80;;;3.70;;
85753;SDS011;76193;51.076;-1.794;2024-03-17T09:39:57;6.90;;;3.35;;
85753;SDS011;76193;51.076;-1.794;2024-03-17T09:42:25;5.43;;;2.78;;
85753;SDS011;76193;51.076;-1.794;2024-03-17T09:44:51;7.88;;;3.35;;
85753;SDS011;76193;51.076;-1.794;2024-03-17T09:47:19;6.60;;;3.20;;
85753;SDS011;76193;51.076;-1.794;2024-03-17T09:49:48;5.07;;;2.90;;
85753;SDS011;76193;51.076;-1.794;2024-03-17T09:52:24;6.53;;;3.42;;
85753;SDS011;76193;51.076;-1.794;2024-03-17T09:55:06;6.85;;;3.65;;
85753;SDS011;76193;51.076;-1.794;2024-03-17T09:57:37;7.03;;;3.75;;
85753;SDS011;76193;51.076;-1.794;2024-03-17T10:00:04;8.23;;;4.07;;
85753;SDS011;76193;51.076;-1.794;2024-03-17T10:02:41;7.03;;;3.05;;
85753;SDS011;76193;51.076;-1.794;2024-03-17T10:05:17;6.32;;;3.42;;
85753;SDS011;76193;51.076;-1.794;2024-03-17T10:07:43;8.70;;;3.47;;
85753;SDS011;76193;51.076;-1.794;2024-03-17T10:10:12;9.07;;;3.40;;
85753;SDS011;76193;51.076;-1.794;2024-03-17T10:12:37;5.13;;;3.08;;
85753;SDS011;76193;51.076;-1.794;2024-03-17T10:15:03;8.30;;;4.35;;
85753;SDS011;76193;51.076;-1.794;2024-03-17T10:17:33;8.13;;;3.70;;
85753;SDS011;76193;51.076;-1.794;2024-03-17T10:22:39;7.82;;;2.80;;
85753;SDS011;76193;51.076;-1.794;2024-03-17T10:25:04;5.40;;;2.55;;
85753;SDS011;76193;51.076;-1.794;2024-03-17T10:27:31;5.88;;;2.72;;
85753;SDS011;76193;51.076;-1.794;2024-03-17T10:29:56;6.10;;;2.42;;
85753;SDS011;76193;51.076;-1.794;2024-03-17T10:32:22;7.22;;;2.90;;
85753;SDS011;76193;51.076;-1.794;2024-03-17T10:34:50;4.95;;;2.45;;
85753;SDS011;76193;51.076;-1.794;2024-03-17T10:37:16;5.47;;;2.22;;
85753;SDS011;76193;51.076;-1.794;2024-03-17T10:39:47;3.33;;;2.15;;
85753;SDS011;76193;51.076;-1.794;2024-03-17T10:42:15;5.60;;;2.25;;
85753;SDS011;76193;51.076;-1.794;2024-03-17T10:44:49;3.40;;;1.67;;
85753;SDS011;76193;51.076;-1.794;2024-03-17T10:47:22;4.85;;;1.70;;
85753;SDS011;76193;51.076;-1.794;2024-03-17T10:49:53;2.53;;;1.77;;
85753;SDS011;76193;51.076;-1.794;2024-03-17T10:52:19;4.00;;;1.85;;
85753;SDS011;76193;51.076;-1.794;2024-03-17T10:54:47;4.53;;;2.03;;
85753;SDS011;76193;51.076;-1.794;2024-03-17T11:00:02;4.72;;;1.80;;
85753;SDS011;76193;51.076;-1.794;2024-03-17T11:02:30;3.17;;;1.90;;
85753;SDS011;76193;51.076;-1.794;2024-03-17T11:04:58;2.95;;;1.65;;
85753;SDS011;76193;51.076;-1.794;2024-03-17T11:07:24;1.63;;;1.27;;
85753;SDS011;76193;51.076;-1.794;2024-03-17T11:09:51;3.42;;;1.70;;
85753;SDS011;76193;51.076;-1.794;2024-03-17T11:12:39;2.75;;;1.98;;
85753;SDS011;76193;51.076;-1.794;2024-03-17T11:17:43;2.10;;;1.70;;
85753;SDS011;76193;51.076;-1.794;2024-03-17T11:20:15;3.38;;;1.63;;
85753;SDS011;76193;51.076;-1.794;2024-03-17T11:22:45;2.38;;;1.38;;
85753;SDS011;76193;51.076;-1.794;2024-03-17T11:46:59;1.63;;;1.30;;
85753;SDS011;76193;51.076;-1.794;2024-03-17T11:49:27;2.53;;;1.55;;
85753;SDS011;76193;51.076;-1.794;2024-03-17T11:51:53;1.60;;;1.30;;
85753;SDS011;76193;51.076;-1.794;2024-03-17T11:54:20;2.03;;;1.35;;
85753;SDS011;76193;51.076;-1.794;2024-03-17T11:56:49;3.15;;;1.33;;
85753;SDS011;76193;51.076;-1.794;2024-03-17T11:59:18;3.63;;;1.75;;
85753;SDS011;76193;51.076;-1.794;2024-03-17T12:01:51;2.05;;;1.20;;
85753;SDS011;76193;51.076;-1.794;2024-03-17T12:04:17;3.05;;;1.88;;
85753;SDS011;76193;51.076;-1.794;2024-03-17T12:06:48;2.03;;;1.25;;
85753;SDS011;76193;51.076;-1.794;2024-03-17T12:09:18;1.90;;;1.05;;
85753;SDS011;76193;51.076;-1.794;2024-03-17T12:11:59;1.67;;;1.10;;
85753;SDS011;76193;51.076;-1.794;2024-03-17T12:14:25;2.80;;;1.17;;
85753;SDS011;76193;51.076;-1.794;2024-03-17T12:16:51;2.25;;;1.17;;
85753;SDS011;76193;51.076;-1.794;2024-03-17T12:19:17;2.80;;;0.93;;
85753;SDS011;76193;51.076;-1.794;2024-03-17T12:21:43;1.10;;;1.00;;
85753;SDS011;76193;51.076;-1.794;2024-03-17T12:24:13;2.38;;;1.10;;
85753;SDS011;76193;51.076;-1.794;2024-03-17T12:26:40;2.45;;;1.10;;
85753;SDS011;76193;51.076;-1.794;2024-03-17T12:29:18;1.13;;;1.02;;
85753;SDS011;76193;51.076;-1.794;2024-03-17T12:31:59;3.78;;;1.25;;
85753;SDS011;76193;51.076;-1.794;2024-03-17T12:34:27;2.03;;;1.63;;
85753;SDS011;76193;51.076;-1.794;2024-03-17T12:36:53;3.65;;;1.00;;
85753;SDS011;76193;51.076;-1.794;2024-03-17T12:39:20;1.98;;;1.13;;
85753;SDS011;76193;51.076;-1.794;2024-03-17T12:42:01;1.77;;;1.42;;
85753;SDS011;76193;51.076;-1.794;2024-03-17T12:44:30;2.38;;;1.52;;
85753;SDS011;76193;51.076;-1.794;2024-03-17T12:47:00;2.20;;;1.30;;
85753;SDS011;76193;51.076;-1.794;2024-03-17T12:49:27;1.75;;;1.20;;
85753;SDS011;76193;51.076;-1.794;2024-03-17T12:51:53;1.75;;;0.95;;
85753;SDS011;76193;51.076;-1.794;2024-03-17T12:54:19;3.40;;;1.15;;
85753;SDS011;76193;51.076;-1.794;2024-03-17T12:56:46;2.55;;;1.13;;
85753;SDS011;76193;51.076;-1.794;2024-03-17T12:59:39;2.25;;;1.05;;
85753;SDS011;76193;51.076;-1.794;2024-03-17T13:02:41;4.10;;;1.75;;
85753;SDS011;76193;51.076;-1.794;2024-03-17T13:05:19;5.25;;;1.42;;
85753;SDS011;76193;51.076;-1.794;2024-03-17T13:07:48;3.33;;;1.27;;
85753;SDS011;76193;51.076;-1.794;2024-03-17T13:10:14;2.55;;;1.45;;
85753;SDS011;76193;51.076;-1.794;2024-03-17T13:12:41;2.28;;;1.40;;
85753;SDS011;76193;51.076;-1.794;2024-03-17T13:15:08;1.65;;;1.30;;
85753;SDS011;76193;51.076;-1.794;2024-03-17T13:17:35;3.65;;;1.45;;
85753;SDS011;76193;51.076;-1.794;2024-03-17T13:20:00;2.35;;;1.17;;
85753;SDS011;76193;51.076;-1.794;2024-03-17T13:22:26;1.48;;;0.90;;
85753;SDS011;76193;51.076;-1.794;2024-03-17T13:24:51;3.60;;;1.05;;
85753;SDS011;76193;51.076;-1.794;2024-03-17T13:27:17;2.92;;;1.90;;
85753;SDS011;76193;51.076;-1.794;2024-03-17T13:29:46;4.35;;;1.60;;
85753;SDS011;76193;51.076;-1.794;2024-03-17T13:32:12;3.22;;;1.52;;
85753;SDS011;76193;51.076;-1.794;2024-03-17T13:34:37;3.90;;;1.40;;
85753;SDS011;76193;51.076;-1.794;2024-03-17T13:37:03;6.72;;;1.80;;
85753;SDS011;76193;51.076;-1.794;2024-03-17T13:39:29;5.10;;;1.70;;
85753;SDS011;76193;51.076;-1.794;2024-03-17T13:41:57;5.97;;;1.60;;
85753;SDS011;76193;51.076;-1.794;2024-03-17T13:44:27;6.80;;;1.65;;
85753;SDS011;76193;51.076;-1.794;2024-03-17T13:46:52;4.55;;;2.17;;
85753;SDS011;76193;51.076;-1.794;2024-03-17T13:49:18;8.07;;;2.03;;
85753;SDS011;76193;51.076;-1.794;2024-03-17T13:51:43;6.78;;;1.67;;
85753;SDS011;76193;51.076;-1.794;2024-03-17T13:54:08;6.25;;;1.90;;
85753;SDS011;76193;51.076;-1.794;2024-03-17T13:56:34;4.30;;;2.03;;
85753;SDS011;76193;51.076;-1.794;2024-03-17T13:58:59;5.70;;;1.95;;
85753;SDS011;76193;51.076;-1.794;2024-03-17T14:01:25;6.47;;;2.05;;
85753;SDS011;76193;51.076;-1.794;2024-03-17T14:03:51;8.18;;;2.20;;
85753;SDS011;76193;51.076;-1.794;2024-03-17T14:06:16;6.38;;;2.00;;
85753;SDS011;76193;51.076;-1.794;2024-03-17T14:08:42;8.50;;;2.10;;
85753;SDS011;76193;51.076;-1.794;2024-03-17T14:11:07;5.47;;;2.03;;
85753;SDS011;76193;51.076;-1.794;2024-03-17T14:13:32;5.75;;;1.80;;
85753;SDS011;76193;51.076;-1.794;2024-03-17T14:15:58;7.25;;;1.75;;
85753;SDS011;76193;51.076;-1.794;2024-03-17T14:18:23;6.30;;;2.03;;
85753;SDS011;76193;51.076;-1.794;2024-03-17T14:20:49;6.30;;;1.77;;
85753;SDS011;76193;51.076;-1.794;2024-03-17T14:23:15;3.53;;;1.73;;
85753;SDS011;76193;51.076;-1.794;2024-03-17T14:25:41;8.32;;;2.20;;
85753;SDS011;76193;51.076;-1.794;2024-03-17T14:28:06;6.70;;;1.83;;
85753;SDS011;76193;51.076;-1.794;2024-03-17T14:30:32;9.02;;;2.08;;
85753;SDS011;76193;51.076;-1.794;2024-03-17T14:32:58;5.05;;;2.10;;
85753;SDS011;76193;51.076;-1.794;2024-03-17T14:35:24;12.73;;;3.13;;
85753;SDS011;76193;51.076;-1.794;2024-03-17T14:37:51;9.25;;;2.47;;
85753;SDS011;76193;51.076;-1.794;2024-03-17T14:40:17;4.38;;;1.45;;
85753;SDS011;76193;51.076;-1.794;2024-03-17T14:42:48;5.20;;;1.45;;
85753;SDS011;76193;51.076;-1.794;2024-03-17T14:45:17;5.78;;;2.03;;
85753;SDS011;76193;51.076;-1.794;2024-03-17T14:47:43;8.70;;;1.98;;
85753;SDS011;76193;51.076;-1.794;2024-03-17T14:50:09;9.93;;;1.70;;
85753;SDS011;76193;51.076;-1.794;2024-03-17T14:52:38;6.63;;;1.70;;
85753;SDS011;76193;51.076;-1.794;2024-03-17T14:55:05;3.70;;;1.70;;
85753;SDS011;76193;51.076;-1.794;2024-03-17T14:57:32;3.30;;;2.17;;
85753;SDS011;76193;51.076;-1.794;2024-03-17T14:59:57;6.50;;;1.83;;